Thursday, November 15, 2018, 8:56 PM EST
Back to Local

KDOV, Dover Air Force Base

Location: Dover, DE, United States Lat: 39.133
Local Time: 8:56 PM EST ( 1:56 GMT) Lon: -75.467
Time Zone: US/Eastern Elev: 29 ft

Show me the last for .
Show Coded

Time T Td Feel RH Dir Speed Gust Alt SLP Vis Weather Sky Remarks
2018-11-15 20:29 48 46 38 93 60° 26 44 29.73 29.74 10 OVC010 None
2018-11-15 20:21 48 46 38 93 60° 35 44 29.73 29.74 10 BKN008 OVC012 None
2018-11-15 20:19 48 46 38 93 60° 35 40 29.72 29.73 9 OVC010 Pressure falling rapidly
2018-11-15 20:15 48 46 39 93 60° 29 37 29.74 29.75 8 BKN009 OVC014 Pressure falling rapidly
2018-11-15 20:09 48 46 38 93 60° 30 40 29.77 29.78 6 -RA BR SCT009 OVC014 Pressure falling rapidly
2018-11-15 19:56 47 46 36 97 60° 26 44 29.80 29.81 9 -RA BKN010 OVC015 Peak wind: 43 mph (38 kts) from 60° at 49 min
1-hr Precip Total: 0.06"
2018-11-15 19:51 46 46 35 100 60° 30 44 29.80 29.81 8 -RA BKN010 OVC015 None
2018-11-15 19:49 46 46 36 100 60° 29 36 29.80 29.81 8 -RA BKN010 OVC015 Pressure falling rapidly
2018-11-15 19:33 46 46 36 100 50° 25 37 29.85 29.86 3 -RA BR BKN009 OVC013 Pressure falling rapidly
2018-11-15 19:21 46 46 36 100 60° 26 38 29.87 29.88 4 -RA BR FEW008 OVC015 None
2018-11-15 19:13 46 46 36 100 60° 25 38 29.88 29.89 4 -RA BR SCT008 OVC014 None
2018-11-15 19:01 46 45 37 93 50° 24 33 29.88 29.89 3 -RA BR FEW007 OVC012 None
2018-11-15 18:57 46 45 37 93 60° 24 32 29.88 29.89 2 -RA BR FEW007 OVC012 None
2018-11-15 18:56 46 45 36 97 60° 24 32 29.88 29.89 2 -RA BR OVC010 1-hr Precip Total: 0.24"
6-hr Precip Total (7pm): 0.82"
6-hr Min Temp (7pm): 36.9°F
6-hr Max Temp (7pm): 45.7°F
2018-11-15 18:52 46 45 37 93 50° 24 30 29.88 29.89 2 -RA BR OVC010 Pressure falling rapidly
2018-11-15 18:44 43 43 32 100 50° 22 29 29.90 29.91 3 -RA BR OVC010 None
2018-11-15 18:36 43 41 34 93 40° 16 21 29.90 29.91 2 -RA BR OVC010 Variable visibility
2018-11-15 18:32 41 41 32 100 40° 14 21 29.91 29.92 3 -RA BR OVC010 None
2018-11-15 18:28 41 39 32 93 40° 14 21 29.91 29.92 2 -RA BR OVC010 Variable visibility
Pressure falling rapidly
2018-11-15 18:16 41 39 32 93 30° 17 - 29.93 29.94 1 +RA BR OVC010 None
2018-11-15 18:12 39 39 30 100 40° 20 - 29.92 29.93 1 +RA BR OVC008 Pressure falling rapidly
2018-11-15 18:04 39 39 31 100 20° 15 - 29.94 29.95 2 -RA BR OVC008 None
2018-11-15 17:56 39 39 30 97 20° 18 - 29.95 29.96 1 -RA BR OVC008 1-hr Precip Total: 0.21"
2018-11-15 17:52 39 39 30 100 20° 18 - 29.95 29.96 1 -RA BR OVC008 Pressure falling rapidly
2018-11-15 17:44 39 39 30 100 10° 16 - 29.97 29.98 1 -RA BR OVC006 None
2018-11-15 17:20 39 39 30 100 10° 16 - 29.97 29.98 2 -RA BR OVC005 Variable visibility
2018-11-15 17:00 41 41 31 100 30° 15 23 29.97 29.98 2 -RA BR OVC006 Variable visibility
2018-11-15 16:56 41 40 32 97 40° 20 - 29.97 29.98 1 -RA BR OVC006 1-hr Precip Total: 0.14"
2018-11-15 16:53 41 39 31 93 30° 20 24 29.97 29.98 1 -RA BR OVC006 None
2018-11-15 16:49 41 39 30 93 40° 16 26 29.98 29.99 1 -RA BR OVC006 Variable visibility
2018-11-15 16:45 41 39 30 93 30° 18 26 29.98 29.99 1 -RA BR OVC006 Pressure falling rapidly
2018-11-15 16:37 41 39 31 93 30° 16 25 30.00 30.01 2 -RA BR OVC006 Variable visibility
2018-11-15 16:25 39 39 28 100 30° 16 26 30.01 30.02 1 -RA BR OVC007 Variable visibility
2018-11-15 16:21 39 39 28 100 30° 20 26 30.02 30.03 1 -RA BR OVC007 None
2018-11-15 16:17 39 39 28 100 30° 16 28 30.02 30.03 1 -RA BR VV007 None
2018-11-15 16:12 39 39 28 100 30° 20 28 30.02 30.03 1 -RA BR OVC007 Variable visibility
2018-11-15 16:08 39 39 28 100 30° 20 28 30.03 30.04 1 -RA BR OVC007 None
2018-11-15 16:04 39 37 28 93 30° 18 28 30.04 30.05 1 -RA BR OVC007 None
2018-11-15 16:00 39 37 28 93 30° 22 28 30.04 30.05 1 -RA BR OVC008 None
2018-11-15 15:56 39 38 28 95 30° 18 28 30.04 30.05 1 -RA BR OVC008 Peak wind: 33 mph (29 kts) from 40° at 20 min
Variable visibility
1-hr Precip Total: 0.08"
6-hr Precip Total (4pm): 0.23"
2018-11-15 15:48 39 37 27 93 30° 21 32 30.04 30.05 1 -RA BR OVC008 Variable visibility
2018-11-15 15:28 39 37 27 93 40° 21 33 30.06 30.07 2 -RA BR OVC008 Variable visibility
2018-11-15 15:23 39 39 27 100 30° 22 33 30.05 30.06 1 -RA BR OVC008 Pressure falling rapidly
2018-11-15 15:20 39 39 27 100 30° 22 31 30.16 30.16 1 -RA BR OVC008 None
2018-11-15 15:08 39 39 27 100 30° 23 32 30.16 30.16 1 -RA BR SCT006 OVC011 None
2018-11-15 15:04 39 39 27 100 30° 23 32 30.08 30.09 1 -RA BR BKN006 OVC011 None
2018-11-15 14:56 40 39 28 95 30° 21 31 30.09 30.10 1 -RA BR SCT007 OVC013 Peak wind: 33 mph (29 kts) from 40° at 25 min
Variable visibility
1-hr Precip Total: 0.07"
2018-11-15 14:48 39 39 27 100 40° 24 31 30.10 30.11 2 -RA BR BKN007 OVC013 Variable visibility
2018-11-15 14:40 39 39 27 100 40° 23 31 30.11 30.12 3 -RA BR BKN007 OVC013 Pressure falling rapidly
2018-11-15 14:24 39 39 27 100 40° 21 32 30.14 30.15 2 -RA BR BKN007 OVC011 None
2018-11-15 14:08 39 37 27 93 40° 21 30 30.15 30.16 4 -RA BR OVC008 None
2018-11-15 13:56 39 38 27 95 40° 23 31 30.15 30.16 8 -RA OVC007 Pressure falling rapidly
1-hr Precip Total: 0.08"
2018-11-15 13:20 37 37 25 100 40° 23 30 30.19 30.20 3 RA BR OVC007 Pressure falling rapidly
2018-11-15 13:19 37 37 25 100 40° 23 30 30.19 30.20 3 RA BR OVC007 Pressure falling rapidly
2018-11-15 13:04 37 36 26 93 30° 18 24 30.23 30.24 2 -RA BR OVC007 Variable visibility
2018-11-15 13:00 37 36 26 93 30° 21 24 30.23 30.24 1 +RA BR OVC007 Variable visibility
2018-11-15 12:56 37 35 27 95 30° 17 - 30.24 30.25 2 RA BR OVC007 Pressure falling rapidly
1-hr Precip Total: 0.17"
6-hr Precip Total (1pm): 0.38"
6-hr Min Temp (1pm): 34.3°F
6-hr Max Temp (1pm): 36.9°F
2018-11-15 12:40 36 36 26 100 20° 15 - 30.27 30.28 2 +RA BR OVC007 Variable visibility
2018-11-15 12:32 36 34 24 93 20° 16 23 30.27 30.28 2 +RA BR OVC008 Pressure falling rapidly
2018-11-15 11:56 35 33 24 93 20° 16 - 30.31 30.32 6 RA BR OVC009 1-hr Precip Total: 0.10"
2018-11-15 11:51 36 34 26 93 20° 15 - 30.31 30.32 6 -RA BR OVC009 Pressure falling rapidly
2018-11-15 11:45 36 34 27 93 10° 13 - 30.34 30.35 6 -RA BR BKN010 OVC021 None
2018-11-15 11:25 36 34 27 93 20° 14 - 30.34 30.35 5 RA BR FEW009 BKN023 None
2018-11-15 10:57 35 32 26 91 30° 13 - 30.36 30.37 5 -RAPL BR BKN033 OVC075 Pressure falling rapidly
1-hr Precip Total: 0.08"
2018-11-15 10:45 36 32 27 86 30° 13 - 30.38 30.39 6 -RAPL BR BKN037 OVC075 None
2018-11-15 10:27 36 32 24 86 30° 12 22 30.37 30.38 8 -RA BKN030 OVC075 None
2018-11-15 09:56 35 31 25 87 30° 15 - 30.40 30.41 7 -PLRA OVC027 1-hr Precip Total: 0.03"
6-hr Precip Total (10am): 0.03"
2018-11-15 09:20 34 30 24 86 30° 16 - 30.41 30.42 7 -PLRA OVC035 Pressure falling rapidly
2018-11-15 09:06 36 28 25 74 30° 13 20 30.43 30.44 5 -PLSN OVC035 None
2018-11-15 08:56 37 29 28 72 30° 13 - 30.43 30.44 7 -PLSNSG FEW035 Pressure falling rapidly
1-hr Precip Total: Trace
2018-11-15 07:56 37 27 28 67 30° 13 - 30.47 30.48 10 SCT036 None
2018-11-15 06:56 36 25 28 64 40° 13 - 30.49 30.50 10 BKN037 6-hr Min Temp (7am): 34.5°F
6-hr Max Temp (7am): 36.3°F
2018-11-15 05:56 35 24 26 62 50° 15 - 30.48 30.49 10 OVC034 None
2018-11-15 04:56 35 22 27 58 20° 12 - 30.51 30.52 10 BKN037 None
2018-11-15 03:56 35 22 27 57 10° 13 - 30.51 30.52 10 CLR None
2018-11-15 02:56 35 21 27 55 20° 13 - 30.53 30.54 10 BKN170 None
2018-11-15 01:56 35 20 28 54 30° 10 - 30.54 30.55 10 SCT220 None
2018-11-15 00:56 36 20 26 52 30° 16 - 30.55 30.56 10 CLR 6-hr Min Temp (1am): 35.8°F
6-hr Max Temp (1am): 39.2°F
2018-11-14 23:56 37 19 26 48 30° 16 22 30.55 30.56 10 CLR 24-hr Min Temp (12am): 36.9°F
24-hr Max Temp (12am): 44.1°F
2018-11-14 22:56 37 19 30 46 20° 12 - 30.56 30.57 10 FEW220 None
2018-11-14 21:56 37 21 29 51 20° 13 - 30.55 30.56 10 CLR None

Support USWX by starting your Amazon purchase here.